Gabriella — OJHP — position and weather

sailwx.info

Track history (hours):
 
Tides and Currents Weather Stations Pressure Air Temp Water Temp Dewpoint Dewpoint Depression Visibility Wind Speed Wind Dir Waves Ship Positions

Gabriella

Last reported at 2017-Feb-21 06:16 UTC. Time now 2017-Feb-21 10:02 UTC.
Position N 59°50' E 024°23'.

Length 172 m; draft 6.5 m.

Type: Passenger vessel. MMSI: 230361000.

Date/timePositionNaut miles runAvg speedWind from/ knotsBaromVisibWave heightAir tempDewpointWater temp
2017-Feb-21 06:16N 59°50' E 024°23'1317.8
2017-Feb-21 05:34N 59°46' E 023°59'1817.9
2017-Feb-21 04:34N 59°42' E 023°25'4317.9
2017-Feb-21 02:10N 59°33' E 022°02'1117.7
2017-Feb-21 01:33N 59°32' E 021°41'9911.7
2017-Feb-20 17:09N 59°28' E 018°26'6 9.6
2017-Feb-20 16:34N 59°23' E 018°27'1010.1
2017-Feb-20 15:34N 59°19' E 018°08'1 1.2
2017-Feb-20 14:33N 59°19' E 018°06'0 0.0
2017-Feb-20 13:33N 59°19' E 018°06'0 0.0
2017-Feb-20 12:33N 59°19' E 018°06'0 0.0
2017-Feb-20 11:33N 59°19' E 018°06'0 0.0
2017-Feb-20 10:30N 59°19' E 018°06'0 0.0
2017-Feb-20 09:33N 59°19' E 018°06'2 2.3
2017-Feb-20 08:33N 59°19' E 018°10'9 7.1
2017-Feb-20 07:15N 59°26' E 018°23'8410.4
2017-Feb-19 23:10N 59°37' E 021°08'1117.3
2017-Feb-19 22:31N 59°34' E 021°29'5217.1
2017-Feb-19 19:29N 59°40' E 023°11'1617.3
2017-Feb-19 18:33N 59°44' E 023°42'22 1.8
2017-Feb-19 06:17N 59°50' E 024°23'1317.8
2017-Feb-19 05:33N 59°46' E 023°59'1817.9
2017-Feb-19 04:33N 59°42' E 023°24'3617.9
2017-Feb-19 02:32N 59°34' E 022°14'1717.6
2017-Feb-19 01:34N 59°33' E 021°40'1917.9
2017-Feb-19 00:29N 59°36' E 021°03'7911.0
2017-Feb-18 17:14N 59°29' E 018°27'7 9.6
2017-Feb-18 16:32N 59°22' E 018°27'1010.1
2017-Feb-18 15:34N 59°19' E 018°08'1 1.2
2017-Feb-18 14:30N 59°19' E 018°06'0 0.0
2017-Feb-18 13:33N 59°19' E 018°06'0 0.0
2017-Feb-18 12:33N 59°19' E 018°06'0 0.0
2017-Feb-18 11:33N 59°19' E 018°06'0 0.0
2017-Feb-18 10:33N 59°19' E 018°06'0 0.0
2017-Feb-18 09:33N 59°19' E 018°06'2 1.6
2017-Feb-18 08:33N 59°19' E 018°09'10 9.4
2017-Feb-18 07:31N 59°23' E 018°27'8310.0
2017-Feb-17 23:14N 59°37' E 021°07'1217.6
2017-Feb-17 22:33N 59°34' E 021°30'5217.3
2017-Feb-17 19:32N 59°40' E 023°12'1717.5
2017-Feb-17 18:33N 59°45' E 023°45'19 1.5
2017-Feb-17 06:11N 59°49' E 024°21'1117.9
2017-Feb-17 05:33N 59°47' E 023°59'1818.0
2017-Feb-17 04:33N 59°42' E 023°25'4417.9
2017-Feb-17 02:07N 59°32' E 022°01'1017.7
2017-Feb-17 01:33N 59°32' E 021°41'9911.9
2017-Feb-16 17:14N 59°29' E 018°27'7 9.6
2017-Feb-16 16:32N 59°22' E 018°27'1010.3
2017-Feb-16 15:33N 59°19' E 018°08'1 1.1
2017-Feb-16 14:31N 59°19' E 018°06'0 0.0
2017-Feb-16 13:31N 59°19' E 018°06'0 0.0
2017-Feb-16 12:28N 59°19' E 018°06'0 0.0
2017-Feb-16 11:31N 59°19' E 018°06'0 0.0
2017-Feb-16 10:31N 59°19' E 018°06'0 0.0
2017-Feb-16 09:31N 59°19' E 018°06'2 2.0
2017-Feb-16 08:33N 59°19' E 018°10'10 9.4
2017-Feb-16 07:31N 59°24' E 018°27'9 8.9
2017-Feb-16 06:32N 59°32' E 018°33'1111.3
2017-Feb-16 05:33N 59°38' E 018°51'1313.4
2017-Feb-16 04:33N 59°44' E 019°14'1615.5
2017-Feb-16 03:33N 59°54' E 019°38'1411.0
2017-Feb-16 02:15N 60°05' E 019°56'1214.9
2017-Feb-16 01:27N 59°54' E 019°58'3617.1
2017-Feb-15 23:19N 59°38' E 021°03'1317.2
2017-Feb-15 22:33N 59°34' E 021°29'1717.0
2017-Feb-15 21:33N 59°33' E 022°02'1717.5
2017-Feb-15 20:33N 59°36' E 022°36'1717.3
2017-Feb-15 19:34N 59°40' E 023°09'1717.4
2017-Feb-15 18:34N 59°44' E 023°42'21 1.7
2017-Feb-15 06:13N 59°51' E 024°22'1217.7
2017-Feb-15 05:33N 59°47' E 024°00'1817.9
2017-Feb-15 04:33N 59°42' E 023°26'3917.9
2017-Feb-15 02:22N 59°33' E 022°11'1417.8
2017-Feb-15 01:34N 59°32' E 021°42'6314.1
2017-Feb-14 21:06N 60°04' E 019°55'916.9
2017-Feb-14 20:33N 59°57' E 019°44'1818.4
2017-Feb-14 19:33N 59°45' E 019°16'1515.0
2017-Feb-14 18:33N 59°38' E 018°51'1511.1
2017-Feb-14 17:14N 59°29' E 018°27'7 9.9
2017-Feb-14 16:33N 59°22' E 018°27'1010.2
2017-Feb-14 15:33N 59°19' E 018°08'1 1.0
2017-Feb-14 14:31N 59°19' E 018°06'0 0.0
2017-Feb-14 13:31N 59°19' E 018°06'0 0.0
2017-Feb-14 12:31N 59°19' E 018°06'0 0.0
2017-Feb-14 11:31N 59°19' E 018°06'0 0.0
2017-Feb-14 10:31N 59°19' E 018°06'0 0.0
2017-Feb-14 09:31N 59°19' E 018°06'2 1.9
2017-Feb-14 08:34N 59°19' E 018°09'10 9.4
2017-Feb-14 07:31N 59°24' E 018°27'9 8.7
2017-Feb-14 06:30N 59°32' E 018°33'1111.3
2017-Feb-14 05:34N 59°38' E 018°50'1413.5
2017-Feb-14 04:33N 59°44' E 019°13'1615.6
2017-Feb-14 03:33N 59°54' E 019°38'14 9.6
2017-Feb-14 02:09N 60°04' E 019°56'4515.4
2017-Feb-13 23:13N 59°37' E 021°07'1218.0
2017-Feb-13 22:34N 59°35' E 021°30'1616.0
2017-Feb-13 21:33N 59°33' E 022°01'4017.4
2017-Feb-13 19:16N 59°41' E 023°18'1217.3
2017-Feb-13 18:34N 59°44' E 023°42'10 0.8
2017-Feb-13 05:33N 59°47' E 024°01'1817.9
2017-Feb-13 04:33N 59°42' E 023°27'3617.9
2017-Feb-13 02:33N 59°34' E 022°18'1817.8
2017-Feb-13 01:33N 59°32' E 021°43'6314.2
2017-Feb-12 21:06N 60°04' E 019°56'1018.0
2017-Feb-12 20:33N 59°57' E 019°43'1918.5
2017-Feb-12 19:33N 59°45' E 019°15'1515.1
2017-Feb-12 18:34N 59°37' E 018°50'1411.0
2017-Feb-12 17:16N 59°29' E 018°27'710.1
2017-Feb-12 16:33N 59°22' E 018°27'1010.4
2017-Feb-12 15:33N 59°19' E 018°07'1 0.7
2017-Feb-12 14:31N 59°19' E 018°06'0 0.0
2017-Feb-12 13:31N 59°19' E 018°06'0 0.0
2017-Feb-12 12:31N 59°19' E 018°06'0 0.0
2017-Feb-12 11:31N 59°19' E 018°06'0 0.0
2017-Feb-12 10:28N 59°19' E 018°06'0 0.0
2017-Feb-12 09:31N 59°19' E 018°06'2 1.9
2017-Feb-12 08:33N 59°19' E 018°09'9 9.4
2017-Feb-12 07:33N 59°22' E 018°27'10 9.7
2017-Feb-12 06:33N 59°32' E 018°32'1111.2
2017-Feb-12 05:33N 59°38' E 018°51'1313.4
2017-Feb-12 04:33N 59°44' E 019°14'1515.5
2017-Feb-12 03:34N 59°54' E 019°38'14 9.8
2017-Feb-12 02:09N 60°05' E 019°56'1215.9
2017-Feb-12 01:25N 59°53' E 019°59'4917.2
2017-Feb-11 22:33N 59°34' E 021°29'1717.2
2017-Feb-11 21:33N 59°33' E 022°02'3517.4
2017-Feb-11 19:33N 59°40' E 023°10'1717.4
2017-Feb-11 18:33N 59°44' E 023°43'3916.7
2017-Feb-11 16:12N 60°00' E 024°55'1014.0
2017-Feb-11 15:30N 60°10' E 024°58'  
Track history (hours):
 
Tides and Currents Weather Stations Pressure Air Temp Water Temp Dewpoint Dewpoint Depression Visibility Wind Speed Wind Dir Waves Ship Positions

Gabriella

Last reported at 2017-Feb-21 06:16 UTC. Time now 2017-Feb-21 10:02 UTC.
Position N 59°50' E 024°23'.

Length 172 m; draft 6.5 m.

Type: Passenger vessel. MMSI: 230361000.

Date/timePositionNaut miles runAvg speedWind from/ knotsBaromVisibWave heightAir tempDewpointWater temp
2017-Feb-21 06:16N 59°50' E 024°23'1317.8
2017-Feb-21 05:34N 59°46' E 023°59'1817.9
2017-Feb-21 04:34N 59°42' E 023°25'4317.9
2017-Feb-21 02:10N 59°33' E 022°02'1117.7
2017-Feb-21 01:33N 59°32' E 021°41'9911.7
2017-Feb-20 17:09N 59°28' E 018°26'6 9.6
2017-Feb-20 16:34N 59°23' E 018°27'1010.1
2017-Feb-20 15:34N 59°19' E 018°08'1 1.2
2017-Feb-20 14:33N 59°19' E 018°06'0 0.0
2017-Feb-20 13:33N 59°19' E 018°06'0 0.0
2017-Feb-20 12:33N 59°19' E 018°06'0 0.0
2017-Feb-20 11:33N 59°19' E 018°06'0 0.0
2017-Feb-20 10:30N 59°19' E 018°06'0 0.0
2017-Feb-20 09:33N 59°19' E 018°06'2 2.3
2017-Feb-20 08:33N 59°19' E 018°10'9 7.1
2017-Feb-20 07:15N 59°26' E 018°23'8410.4
2017-Feb-19 23:10N 59°37' E 021°08'1117.3
2017-Feb-19 22:31N 59°34' E 021°29'5217.1
2017-Feb-19 19:29N 59°40' E 023°11'1617.3
2017-Feb-19 18:33N 59°44' E 023°42'22 1.8
2017-Feb-19 06:17N 59°50' E 024°23'1317.8
2017-Feb-19 05:33N 59°46' E 023°59'1817.9
2017-Feb-19 04:33N 59°42' E 023°24'3617.9
2017-Feb-19 02:32N 59°34' E 022°14'1717.6
2017-Feb-19 01:34N 59°33' E 021°40'1917.9
2017-Feb-19 00:29N 59°36' E 021°03'7911.0
2017-Feb-18 17:14N 59°29' E 018°27'7 9.6
2017-Feb-18 16:32N 59°22' E 018°27'1010.1
2017-Feb-18 15:34N 59°19' E 018°08'1 1.2
2017-Feb-18 14:30N 59°19' E 018°06'0 0.0
2017-Feb-18 13:33N 59°19' E 018°06'0 0.0
2017-Feb-18 12:33N 59°19' E 018°06'0 0.0
2017-Feb-18 11:33N 59°19' E 018°06'0 0.0
2017-Feb-18 10:33N 59°19' E 018°06'0 0.0
2017-Feb-18 09:33N 59°19' E 018°06'2 1.6
2017-Feb-18 08:33N 59°19' E 018°09'10 9.4
2017-Feb-18 07:31N 59°23' E 018°27'8310.0
2017-Feb-17 23:14N 59°37' E 021°07'1217.6
2017-Feb-17 22:33N 59°34' E 021°30'5217.3
2017-Feb-17 19:32N 59°40' E 023°12'1717.5
2017-Feb-17 18:33N 59°45' E 023°45'19 1.5
2017-Feb-17 06:11N 59°49' E 024°21'1117.9
2017-Feb-17 05:33N 59°47' E 023°59'1818.0
2017-Feb-17 04:33N 59°42' E 023°25'4417.9
2017-Feb-17 02:07N 59°32' E 022°01'1017.7
2017-Feb-17 01:33N 59°32' E 021°41'9911.9
2017-Feb-16 17:14N 59°29' E 018°27'7 9.6
2017-Feb-16 16:32N 59°22' E 018°27'1010.3
2017-Feb-16 15:33N 59°19' E 018°08'1 1.1
2017-Feb-16 14:31N 59°19' E 018°06'0 0.0
2017-Feb-16 13:31N 59°19' E 018°06'0 0.0
2017-Feb-16 12:28N 59°19' E 018°06'0 0.0
2017-Feb-16 11:31N 59°19' E 018°06'0 0.0
2017-Feb-16 10:31N 59°19' E 018°06'0 0.0
2017-Feb-16 09:31N 59°19' E 018°06'2 2.0
2017-Feb-16 08:33N 59°19' E 018°10'10 9.4
2017-Feb-16 07:31N 59°24' E 018°27'9 8.9
2017-Feb-16 06:32N 59°32' E 018°33'1111.3
2017-Feb-16 05:33N 59°38' E 018°51'1313.4
2017-Feb-16 04:33N 59°44' E 019°14'1615.5
2017-Feb-16 03:33N 59°54' E 019°38'1411.0
2017-Feb-16 02:15N 60°05' E 019°56'1214.9
2017-Feb-16 01:27N 59°54' E 019°58'3617.1
2017-Feb-15 23:19N 59°38' E 021°03'1317.2
2017-Feb-15 22:33N 59°34' E 021°29'1717.0
2017-Feb-15 21:33N 59°33' E 022°02'1717.5
2017-Feb-15 20:33N 59°36' E 022°36'1717.3
2017-Feb-15 19:34N 59°40' E 023°09'1717.4
2017-Feb-15 18:34N 59°44' E 023°42'21 1.7
2017-Feb-15 06:13N 59°51' E 024°22'1217.7
2017-Feb-15 05:33N 59°47' E 024°00'1817.9
2017-Feb-15 04:33N 59°42' E 023°26'3917.9
2017-Feb-15 02:22N 59°33' E 022°11'1417.8
2017-Feb-15 01:34N 59°32' E 021°42'6314.1
2017-Feb-14 21:06N 60°04' E 019°55'916.9
2017-Feb-14 20:33N 59°57' E 019°44'1818.4
2017-Feb-14 19:33N 59°45' E 019°16'1515.0
2017-Feb-14 18:33N 59°38' E 018°51'1511.1
2017-Feb-14 17:14N 59°29' E 018°27'7 9.9
2017-Feb-14 16:33N 59°22' E 018°27'1010.2
2017-Feb-14 15:33N 59°19' E 018°08'1 1.0
2017-Feb-14 14:31N 59°19' E 018°06'0 0.0
2017-Feb-14 13:31N 59°19' E 018°06'0 0.0
2017-Feb-14 12:31N 59°19' E 018°06'0 0.0
2017-Feb-14 11:31N 59°19' E 018°06'0 0.0
2017-Feb-14 10:31N 59°19' E 018°06'0 0.0
2017-Feb-14 09:31N 59°19' E 018°06'2 1.9
2017-Feb-14 08:34N 59°19' E 018°09'10 9.4
2017-Feb-14 07:31N 59°24' E 018°27'9 8.7
2017-Feb-14 06:30N 59°32' E 018°33'1111.3
2017-Feb-14 05:34N 59°38' E 018°50'1413.5
2017-Feb-14 04:33N 59°44' E 019°13'1615.6
2017-Feb-14 03:33N 59°54' E 019°38'14 9.6
2017-Feb-14 02:09N 60°04' E 019°56'4515.4
2017-Feb-13 23:13N 59°37' E 021°07'1218.0
2017-Feb-13 22:34N 59°35' E 021°30'1616.0
2017-Feb-13 21:33N 59°33' E 022°01'4017.4
2017-Feb-13 19:16N 59°41' E 023°18'1217.3
2017-Feb-13 18:34N 59°44' E 023°42'10 0.8
2017-Feb-13 05:33N 59°47' E 024°01'1817.9
2017-Feb-13 04:33N 59°42' E 023°27'3617.9
2017-Feb-13 02:33N 59°34' E 022°18'1817.8
2017-Feb-13 01:33N 59°32' E 021°43'6314.2
2017-Feb-12 21:06N 60°04' E 019°56'1018.0
2017-Feb-12 20:33N 59°57' E 019°43'1918.5
2017-Feb-12 19:33N 59°45' E 019°15'1515.1
2017-Feb-12 18:34N 59°37' E 018°50'1411.0
2017-Feb-12 17:16N 59°29' E 018°27'710.1
2017-Feb-12 16:33N 59°22' E 018°27'1010.4
2017-Feb-12 15:33N 59°19' E 018°07'1 0.7
2017-Feb-12 14:31N 59°19' E 018°06'0 0.0
2017-Feb-12 13:31N 59°19' E 018°06'0 0.0
2017-Feb-12 12:31N 59°19' E 018°06'0 0.0
2017-Feb-12 11:31N 59°19' E 018°06'0 0.0
2017-Feb-12 10:28N 59°19' E 018°06'0 0.0
2017-Feb-12 09:31N 59°19' E 018°06'2 1.9
2017-Feb-12 08:33N 59°19' E 018°09'9 9.4
2017-Feb-12 07:33N 59°22' E 018°27'10 9.7
2017-Feb-12 06:33N 59°32' E 018°32'1111.2
2017-Feb-12 05:33N 59°38' E 018°51'1313.4
2017-Feb-12 04:33N 59°44' E 019°14'1515.5
2017-Feb-12 03:34N 59°54' E 019°38'14 9.8
2017-Feb-12 02:09N 60°05' E 019°56'1215.9
2017-Feb-12 01:25N 59°53' E 019°59'4917.2
2017-Feb-11 22:33N 59°34' E 021°29'1717.2
2017-Feb-11 21:33N 59°33' E 022°02'3517.4
2017-Feb-11 19:33N 59°40' E 023°10'1717.4
2017-Feb-11 18:33N 59°44' E 023°43'3916.7
2017-Feb-11 16:12N 60°00' E 024°55'1014.0
2017-Feb-11 15:30N 60°10' E 024°58'  

Dump ship's entire track history